Time;durP1;ratioP1;P1;durP2;ratioP2;P2;SDS_P1;SDS_P2;PMS_P1;PMS_P2;Temp;Humidity;BMP_temperature;BMP_pressure;BME280_temperature;BME280_humidity;BME280_pressure;Samples;Min_cycle;Max_cycle;Signal;HPM_P1;HPM_P2
2024/01/02 00:01:55;;;;;;;6.85;3.05;;;24.10;47.20;;;;;;10192050;29;20417;-45
2024/01/02 00:06:58;;;;;;;6.82;3.13;;;24.10;47.10;;;;;;10195049;28;20073;-48
2024/01/02 00:12:00;;;;;;;5.22;2.50;;;24.20;47.20;;;;;;10185838;29;20075;-45
2024/01/02 00:17:01;;;;;;;6.35;3.10;;;24.10;47.20;;;;;;10189325;28;20464;-45
2024/01/02 00:22:04;;;;;;;9.00;3.22;;;24.10;47.50;;;;;;10185330;29;20052;-49
2024/01/02 00:27:06;;;;;;;4.90;2.75;;;24.10;47.40;;;;;;10192083;29;20051;-45
2024/01/02 00:32:08;;;;;;;5.55;2.78;;;24.10;47.50;;;;;;10190350;29;20166;-46
2024/01/02 00:37:11;;;;;;;4.20;2.83;;;24.00;47.60;;;;;;10184389;28;20131;-49
2024/01/02 00:42:12;;;;;;;4.80;2.65;;;24.00;47.60;;;;;;10191365;28;20039;-45
2024/01/02 00:47:14;;;;;;;4.72;2.65;;;24.00;47.50;;;;;;10191233;29;20048;-48
2024/01/02 00:52:17;;;;;;;4.32;2.63;;;24.00;47.50;;;;;;10189934;29;20048;-44
2024/01/02 00:57:18;;;;;;;5.18;2.47;;;24.00;47.50;;;;;;10185463;28;20048;-47
2024/01/02 01:02:20;;;;;;;4.20;2.30;;;24.00;47.60;;;;;;10183037;29;20050;-45
2024/01/02 01:07:23;;;;;;;3.33;2.17;;;24.00;47.50;;;;;;10180250;29;20058;-45
2024/01/02 01:12:25;;;;;;;6.78;2.35;;;23.90;47.60;;;;;;10187096;28;20043;-45
2024/01/02 01:17:26;;;;;;;6.13;2.53;;;23.90;47.70;;;;;;10185008;28;20052;-47
2024/01/02 01:22:29;;;;;;;6.32;2.72;;;24.00;47.60;;;;;;10187581;28;20047;-46
2024/01/02 01:27:31;;;;;;;4.82;2.33;;;24.00;47.50;;;;;;10186173;28;20050;-45
2024/01/02 01:32:32;;;;;;;4.35;2.53;;;23.90;47.60;;;;;;10188147;29;20525;-48
2024/01/02 01:37:35;;;;;;;3.55;2.17;;;23.90;47.60;;;;;;10191798;29;20417;-49
2024/01/02 01:42:37;;;;;;;3.47;2.20;;;23.80;47.70;;;;;;10184969;29;20130;-45
2024/01/02 01:47:38;;;;;;;2.72;2.00;;;23.90;47.60;;;;;;10187449;28;20130;-48
2024/01/02 01:52:41;;;;;;;3.50;2.15;;;23.90;47.50;;;;;;10186734;29;20062;-45
2024/01/02 01:57:43;;;;;;;4.65;2.40;;;23.90;47.60;;;;;;10194855;28;20054;-49
2024/01/02 02:02:45;;;;;;;4.13;2.00;;;23.90;47.50;;;;;;10193253;29;20502;-45
2024/01/02 02:07:47;;;;;;;3.30;1.85;;;23.90;47.60;;;;;;10190503;28;20402;-46
2024/01/02 02:12:49;;;;;;;4.15;2.20;;;23.90;47.50;;;;;;10182751;28;20048;-46
2024/01/02 02:17:51;;;;;;;4.50;2.13;;;23.90;47.50;;;;;;10186035;29;20506;-45
2024/01/02 02:22:54;;;;;;;2.42;1.73;;;23.90;47.60;;;;;;10193861;28;20421;-45
2024/01/02 02:27:55;;;;;;;2.35;1.80;;;23.90;47.50;;;;;;10186529;28;20074;-45
2024/01/02 02:32:57;;;;;;;4.13;1.95;;;23.90;47.50;;;;;;10188897;29;20059;-47
2024/01/02 02:38:00;;;;;;;2.70;2.30;;;23.90;47.40;;;;;;10187338;28;20056;-50
2024/01/02 02:43:01;;;;;;;2.38;1.83;;;23.90;47.40;;;;;;10187980;28;20059;-45
2024/01/02 02:48:03;;;;;;;4.13;2.30;;;23.90;47.40;;;;;;10194368;29;20135;-49
2024/01/02 02:53:07;;;;;;;3.15;1.75;;;23.80;47.40;;;;;;10193807;28;20051;-45
2024/01/02 02:58:08;;;;;;;2.53;1.70;;;23.80;47.50;;;;;;10198383;28;20052;-45
2024/01/02 03:03:10;;;;;;;3.22;1.90;;;23.90;47.40;;;;;;10194121;29;20048;-49
2024/01/02 03:08:13;;;;;;;2.72;1.63;;;23.90;47.40;;;;;;10199955;29;20480;-46
2024/01/02 03:13:14;;;;;;;2.92;1.95;;;23.90;47.40;;;;;;10197763;28;20134;-49
2024/01/02 03:18:16;;;;;;;2.47;1.52;;;23.80;47.50;;;;;;10186833;29;20047;-44
2024/01/02 03:23:19;;;;;;;4.55;1.80;;;23.80;47.40;;;;;;10192638;28;20051;-46
2024/01/02 03:28:21;;;;;;;2.35;1.70;;;23.80;47.40;;;;;;10197328;28;20054;-49
2024/01/02 03:33:22;;;;;;;2.40;1.55;;;23.80;47.40;;;;;;10196558;28;20050;-46
2024/01/02 03:38:25;;;;;;;2.58;1.63;;;23.70;47.50;;;;;;10196198;28;20516;-46
2024/01/02 03:43:27;;;;;;;5.15;1.77;;;23.70;47.50;;;;;;10187129;28;20138;-45
2024/01/02 03:48:29;;;;;;;5.25;1.77;;;23.70;47.40;;;;;;10189816;28;20036;-46
2024/01/02 03:53:32;;;;;;;2.97;1.80;;;23.60;47.60;;;;;;10198462;28;20048;-45
2024/01/02 03:58:33;;;;;;;3.10;1.80;;;23.60;47.50;;;;;;10194107;28;20036;-47
2024/01/02 04:03:35;;;;;;;2.22;1.65;;;23.60;47.60;;;;;;10201831;29;20051;-48
2024/01/02 04:08:38;;;;;;;3.33;1.63;;;23.90;48.20;;;;;;10195049;29;20131;-47
2024/01/02 04:13:40;;;;;;;1.77;1.60;;;24.00;47.30;;;;;;10228521;28;20047;-45
2024/01/02 04:18:44;;;;;;;3.67;1.60;;;24.10;47.30;;;;;;10242406;28;20131;-47
2024/01/02 04:23:50;;;;;;;3.45;1.60;;;24.10;47.00;;;;;;10196343;28;20048;-47
2024/01/02 04:28:51;;;;;;;2.40;1.40;;;24.10;46.90;;;;;;10190084;28;20434;-45
2024/01/02 04:33:53;;;;;;;4.05;1.75;;;24.20;46.80;;;;;;10223883;28;20147;-46
2024/01/02 04:38:56;;;;;;;2.20;1.50;;;24.20;46.70;;;;;;10232869;28;20051;-45
2024/01/02 04:43:57;;;;;;;4.75;1.80;;;24.30;46.40;;;;;;10236076;28;20050;-45
2024/01/02 04:48:59;;;;;;;2.35;1.45;;;24.10;46.80;;;;;;10230870;28;20050;-49
2024/01/02 04:54:02;;;;;;;1.98;1.50;;;24.20;46.70;;;;;;10230449;28;20159;-47
2024/01/02 04:59:04;;;;;;;3.85;1.33;;;24.30;46.70;;;;;;10224507;28;20066;-47
2024/01/02 05:04:06;;;;;;;3.38;1.63;;;24.40;46.30;;;;;;10227510;28;20043;-47
2024/01/02 05:09:09;;;;;;;5.55;1.60;;;24.30;46.40;;;;;;10229172;28;20048;-47
2024/01/02 05:14:11;;;;;;;4.35;1.20;;;24.30;46.30;;;;;;10230498;28;20043;-46
2024/01/02 05:19:12;;;;;;;5.82;1.58;;;24.30;46.10;;;;;;10232161;28;20050;-47
2024/01/02 05:24:15;;;;;;;4.05;1.48;;;24.40;46.30;;;;;;10231146;28;20063;-46
2024/01/02 05:29:17;;;;;;;11.32;1.60;;;24.30;46.40;;;;;;10235513;28;20043;-49
2024/01/02 05:34:19;;;;;;;3.75;1.52;;;24.20;46.70;;;;;;10232826;28;20498;-46
2024/01/02 05:39:21;;;;;;;4.05;1.65;;;24.20;46.70;;;;;;10219905;28;20040;-47
2024/01/02 05:44:23;;;;;;;8.93;1.88;;;24.30;46.80;;;;;;10223923;28;20056;-47
2024/01/02 05:49:25;;;;;;;18.92;2.47;;;24.40;46.60;;;;;;10238659;28;20048;-51
2024/01/02 05:54:31;;;;;;;12.95;1.70;;;24.40;47.10;;;;;;10229720;28;20501;-45
2024/01/02 05:59:32;;;;;;;5.60;1.55;;;24.30;47.00;;;;;;10197276;28;20150;-45
2024/01/02 06:04:34;;;;;;;13.77;2.70;;;24.40;46.80;;;;;;10188885;28;20064;-51
2024/01/02 06:09:37;;;;;;;16.73;2.88;;;24.50;46.40;;;;;;10229098;28;20048;-44
2024/01/02 06:14:38;;;;;;;28.15;3.47;;;24.50;47.00;;;;;;10230500;28;20118;-49
2024/01/02 06:19:40;;;;;;;15.80;3.20;;;24.50;48.10;;;;;;10185685;28;20054;-47
2024/01/02 06:24:43;;;;;;;20.83;3.67;;;24.20;49.20;;;;;;10190912;28;20048;-47
2024/01/02 06:29:45;;;;;;;22.35;4.22;;;24.30;48.60;;;;;;10194348;28;20047;-46
2024/01/02 06:34:46;;;;;;;23.85;5.20;;;24.20;49.70;;;;;;10232322;28;20050;-48
2024/01/02 06:39:49;;;;;;;18.38;5.15;;;23.90;50.20;;;;;;10228626;28;20623;-45
2024/01/02 06:44:51;;;;;;;25.95;4.75;;;23.90;50.00;;;;;;10226728;28;20421;-46
2024/01/02 06:49:53;;;;;;;17.00;4.40;;;24.10;49.20;;;;;;10221684;28;20524;-50
2024/01/02 06:54:56;;;;;;;14.63;3.78;;;24.10;47.60;;;;;;10225236;28;20413;-46
2024/01/02 06:59:57;;;;;;;15.80;3.75;;;24.00;49.50;;;;;;10192420;28;20048;-45
2024/01/02 07:04:59;;;;;;;14.15;3.45;;;23.80;49.80;;;;;;10233825;28;20048;-45
2024/01/02 07:10:02;;;;;;;11.68;3.67;;;23.80;49.40;;;;;;10231369;28;20043;-48
2024/01/02 07:15:05;;;;;;;12.40;3.67;;;23.70;49.50;;;;;;10232173;28;20051;-44
2024/01/02 07:20:07;;;;;;;9.88;3.05;;;23.70;49.20;;;;;;10230923;28;20408;-45
2024/01/02 07:25:11;;;;;;;10.85;3.15;;;23.60;49.00;;;;;;10236122;28;20131;-50
2024/01/02 07:30:13;;;;;;;11.35;3.05;;;23.50;49.00;;;;;;10196921;28;20096;-46
2024/01/02 07:35:15;;;;;;;10.60;3.03;;;23.40;49.20;;;;;;10226021;28;20051;-46
2024/01/02 07:40:18;;;;;;;10.85;2.90;;;23.40;48.80;;;;;;10233129;28;20142;-45
2024/01/02 07:45:20;;;;;;;8.60;2.67;;;23.50;48.70;;;;;;10240097;28;20150;-45
2024/01/02 07:50:21;;;;;;;8.00;2.72;;;23.30;48.30;;;;;;10236829;28;20044;-47
2024/01/02 07:55:24;;;;;;;13.30;2.92;;;23.30;48.20;;;;;;10237943;28;20570;-48
2024/01/02 08:00:26;;;;;;;6.57;2.88;;;23.60;47.30;;;;;;10240771;28;20539;-45
2024/01/02 08:05:28;;;;;;;9.65;2.42;;;24.00;46.40;;;;;;10235038;28;20066;-47
2024/01/02 08:10:32;;;;;;;14.00;3.00;;;24.10;45.90;;;;;;10235864;28;20126;-46
2024/01/02 08:15:33;;;;;;;10.93;2.65;;;23.80;46.90;;;;;;10240979;28;20440;-45
2024/01/02 08:20:35;;;;;;;9.02;2.75;;;23.60;47.70;;;;;;10236506;28;20048;-45
2024/01/02 08:25:39;;;;;;;12.85;3.00;;;23.60;48.30;;;;;;10235464;28;20044;-47
2024/01/02 08:30:40;;;;;;;7.15;2.63;;;23.80;48.30;;;;;;10236469;28;20051;-46
2024/01/02 08:35:42;;;;;;;13.10;2.90;;;23.80;48.00;;;;;;10236499;28;20574;-46
2024/01/02 08:40:45;;;;;;;8.25;2.88;;;23.80;48.40;;;;;;10225869;28;20148;-50
2024/01/02 08:45:46;;;;;;;13.63;2.75;;;23.90;48.50;;;;;;10195462;29;20043;-48
2024/01/02 08:50:48;;;;;;;7.85;2.85;;;23.90;48.80;;;;;;10182943;29;20052;-45
2024/01/02 08:55:51;;;;;;;10.35;2.55;;;24.00;48.80;;;;;;10193894;28;20058;-47
2024/01/02 09:00:53;;;;;;;13.32;2.90;;;24.10;48.70;;;;;;10199284;28;20051;-47
2024/01/02 09:05:54;;;;;;;10.55;2.50;;;24.10;48.90;;;;;;10250287;28;20485;-46
2024/01/02 09:10:57;;;;;;;11.38;2.70;;;24.20;48.70;;;;;;10232779;28;20043;-49
2024/01/02 09:15:59;;;;;;;11.82;2.78;;;24.20;48.90;;;;;;10194115;28;20138;-49
2024/01/02 09:21:00;;;;;;;14.27;2.75;;;24.30;48.90;;;;;;10193627;29;20050;-50
2024/01/02 09:26:05;;;;;;;8.23;2.67;;;24.30;49.00;;;;;;10195268;28;20532;-46
2024/01/02 09:31:07;;;;;;;8.65;2.22;;;24.40;48.80;;;;;;10201917;28;20050;-49
2024/01/02 09:36:08;;;;;;;10.40;2.33;;;24.40;48.80;;;;;;10223573;28;20053;-45
2024/01/02 09:41:20;;;;;;;10.50;2.03;;;24.40;48.80;;;;;;10234309;28;20047;-46
2024/01/02 09:46:27;;;;;;;8.68;2.35;;;24.50;48.80;;;;;;10223440;28;20043;-49
2024/01/02 09:51:35;;;;;;;9.85;2.22;;;24.50;48.80;;;;;;10188830;28;20043;-54
2024/01/02 09:56:43;;;;;;;12.15;2.50;;;24.50;48.80;;;;;;10206071;28;20039;-46
2024/01/02 10:01:49;;;;;;;11.25;2.08;;;24.60;48.80;;;;;;10226136;28;20133;-49
2024/01/02 10:07:01;;;;;;;8.43;2.50;;;24.60;48.80;;;;;;10220217;28;20152;-51
2024/01/02 10:12:10;;;;;;;7.47;2.08;;;24.70;48.60;;;;;;10223547;28;20051;-46
2024/01/02 10:17:17;;;;;;;14.13;2.38;;;24.70;48.70;;;;;;10220964;28;20047;-47
2024/01/02 10:22:25;;;;;;;9.13;2.25;;;24.70;48.70;;;;;;10224034;28;20048;-50
2024/01/02 10:27:32;;;;;;;10.15;1.92;;;24.70;48.70;;;;;;10226757;28;20063;-47
2024/01/02 10:32:44;;;;;;;10.98;2.30;;;24.70;48.80;;;;;;10207468;28;20052;-46
2024/01/02 10:37:50;;;;;;;10.63;2.42;;;24.70;48.80;;;;;;10189379;28;20041;-50
2024/01/02 10:43:06;;;;;;;7.80;1.63;;;24.80;48.60;;;;;;10187695;29;20576;-49
2024/01/02 10:48:15;;;;;;;7.28;1.90;;;24.80;48.70;;;;;;10207212;28;20135;-49
2024/01/02 10:53:26;;;;;;;5.80;1.92;;;24.90;48.70;;;;;;10237976;28;20052;-48
2024/01/02 10:58:30;;;;;;;5.15;1.58;;;24.90;48.60;;;;;;10227442;28;20682;-50
2024/01/02 11:03:34;;;;;;;8.80;1.70;;;24.90;47.70;;;;;;10233526;28;20489;-48
2024/01/02 11:08:42;;;;;;;5.90;1.48;;;24.80;47.20;;;;;;10190964;28;20406;-46
2024/01/02 11:13:46;;;;;;;8.52;1.70;;;24.80;46.90;;;;;;10194165;28;20114;-50
2024/01/02 11:18:51;;;;;;;4.93;1.48;;;24.70;46.60;;;;;;10223555;28;20090;-47
2024/01/02 11:23:54;;;;;;;4.20;1.27;;;24.70;46.60;;;;;;10231781;28;20047;-45
2024/01/02 11:28:59;;;;;;;6.03;1.42;;;24.70;46.60;;;;;;10203551;28;20048;-46
2024/01/02 11:34:04;;;;;;;4.15;1.38;;;24.60;46.50;;;;;;10374574;28;20513;-45
2024/01/02 11:39:09;;;;;;;6.15;1.38;;;24.70;46.60;;;;;;10214696;28;20066;-46
2024/01/02 11:44:19;;;;;;;2.72;1.20;;;24.70;46.30;;;;;;10235380;28;20150;-45
2024/01/02 11:49:21;;;;;;;2.33;1.40;;;24.70;46.40;;;;;;10235463;28;20433;-48
2024/01/02 11:54:30;;;;;;;5.90;1.50;;;24.80;46.10;;;;;;10191625;28;20056;-50
2024/01/02 11:59:36;;;;;;;9.38;1.60;;;24.90;46.50;;;;;;10189754;28;20071;-46
2024/01/02 12:04:48;;;;;;;8.50;1.52;;;25.20;46.00;;;;;;10191465;28;20499;-46
2024/01/02 12:09:50;;;;;;;6.13;1.20;;;25.40;45.90;;;;;;10192464;28;20058;-46
2024/01/02 12:14:57;;;;;;;7.93;1.35;;;25.30;45.70;;;;;;10236874;28;20057;-48
2024/01/02 12:20:01;;;;;;;10.88;1.50;;;25.30;45.00;;;;;;10232463;28;20058;-47
2024/01/02 12:25:05;;;;;;;8.77;1.55;;;25.10;45.60;;;;;;10237277;28;20071;-47
2024/01/02 12:30:08;;;;;;;5.93;1.45;;;25.00;45.90;;;;;;10227674;28;20055;-48
2024/01/02 12:35:10;;;;;;;8.30;1.70;;;25.20;46.00;;;;;;10200647;28;20047;-51
2024/01/02 12:40:13;;;;;;;18.67;2.03;;;25.30;45.90;;;;;;10230435;28;20582;-50
2024/01/02 12:45:20;;;;;;;6.53;1.52;;;25.40;45.80;;;;;;10216827;28;20056;-46
2024/01/02 12:50:22;;;;;;;5.88;1.75;;;25.60;45.10;;;;;;10188912;29;20048;-45
2024/01/02 12:55:23;;;;;;;8.35;1.70;;;25.40;45.10;;;;;;10197992;28;20050;-46
2024/01/02 13:00:27;;;;;;;7.53;1.20;;;25.40;45.20;;;;;;10190072;29;20066;-49
2024/01/02 13:05:29;;;;;;;3.78;1.30;;;25.40;45.10;;;;;;10191572;28;20048;-46
2024/01/02 13:10:30;;;;;;;5.57;1.10;;;25.30;45.30;;;;;;10225633;28;20147;-48
2024/01/02 13:15:33;;;;;;;5.22;1.17;;;25.20;45.60;;;;;;10225593;28;20043;-49
2024/01/02 13:20:35;;;;;;;5.47;1.40;;;25.30;45.30;;;;;;10192052;28;20051;-47
2024/01/02 13:25:39;;;;;;;4.97;1.10;;;25.40;45.30;;;;;;10195510;29;20044;-46
2024/01/02 13:30:42;;;;;;;3.47;1.23;;;25.30;45.40;;;;;;10191982;28;20047;-48
2024/01/02 13:35:46;;;;;;;5.30;1.00;;;25.20;44.50;;;;;;10199994;28;20618;-46
2024/01/02 13:40:47;;;;;;;5.72;1.05;;;25.40;44.70;;;;;;10236721;28;20086;-46
2024/01/02 13:45:50;;;;;;;5.03;1.13;;;25.50;44.80;;;;;;10222278;28;20148;-46
2024/01/02 13:50:52;;;;;;;3.65;1.10;;;25.60;44.70;;;;;;10226086;28;20058;-47
2024/01/02 13:55:53;;;;;;;3.20;1.02;;;25.70;44.60;;;;;;10220007;28;20142;-46
2024/01/02 14:00:56;;;;;;;6.00;1.25;;;25.80;44.70;;;;;;10228160;28;20085;-45
2024/01/02 14:05:58;;;;;;;5.80;1.00;;;25.80;44.80;;;;;;10235619;28;20084;-50
2024/01/02 14:11:06;;;;;;;1.00;0.68;;;25.90;44.90;;;;;;10221771;28;20051;-46
2024/01/02 14:16:09;;;;;;;1.95;0.93;;;26.00;44.80;;;;;;10224893;28;20047;-46
2024/01/02 14:21:13;;;;;;;2.50;0.82;;;25.90;44.80;;;;;;10225000;28;20133;-47
2024/01/02 14:26:19;;;;;;;1.33;0.80;;;26.00;45.00;;;;;;10223970;28;20378;-46
2024/01/02 14:31:26;;;;;;;1.33;0.60;;;25.90;44.90;;;;;;10230903;28;20043;-46
2024/01/02 14:36:39;;;;;;;6.18;0.88;;;25.90;45.00;;;;;;10229027;28;20138;-46
2024/01/02 14:41:55;;;;;;;1.25;0.60;;;25.80;45.20;;;;;;10225109;28;20097;-46
2024/01/02 14:47:04;;;;;;;2.13;0.63;;;25.80;45.20;;;;;;10240713;28;20059;-46
2024/01/02 14:52:17;;;;;;;0.70;0.55;;;25.80;45.30;;;;;;10238263;28;20062;-51
2024/01/02 14:57:26;;;;;;;1.73;0.70;;;25.80;45.30;;;;;;10239026;28;20061;-48
2024/01/02 15:02:42;;;;;;;0.98;0.65;;;25.80;44.00;;;;;;10230584;28;20130;-46
2024/01/02 15:07:53;;;;;;;1.42;0.60;;;25.60;43.60;;;;;;10229190;28;20043;-46
2024/01/02 15:13:05;;;;;;;2.60;0.60;;;25.60;43.50;;;;;;10233698;28;20129;-49
2024/01/02 15:18:25;;;;;;;4.90;0.73;;;25.70;43.40;;;;;;10232123;28;20138;-46
2024/01/02 15:23:30;;;;;;;6.57;0.70;;;25.80;43.00;;;;;;10235948;28;20055;-46
2024/01/02 15:28:36;;;;;;;3.60;1.30;;;25.70;43.40;;;;;;10205472;28;20079;-49
2024/01/02 15:33:46;;;;;;;4.53;1.17;;;25.70;44.00;;;;;;10198777;28;20090;-50
2024/01/02 15:39:11;;;;;;;2.75;0.88;;;25.90;43.60;;;;;;10194387;28;20040;-49
2024/01/02 15:44:13;;;;;;;1.95;0.70;;;25.80;43.60;;;;;;10236290;28;20054;-47
2024/01/02 15:49:21;;;;;;;8.57;1.05;;;25.80;44.00;;;;;;10247448;28;20060;-49
2024/01/02 15:54:23;;;;;;;6.18;0.70;;;25.80;44.00;;;;;;10198414;28;20062;-47
2024/01/02 15:59:25;;;;;;;3.88;0.75;;;25.70;44.00;;;;;;10198457;29;20043;-45
2024/01/02 16:04:33;;;;;;;2.90;0.80;;;25.70;43.70;;;;;;10205569;28;20090;-45
2024/01/02 16:09:46;;;;;;;4.38;1.00;;;25.70;43.70;;;;;;10228186;28;20051;-46
2024/01/02 16:15:20;;;;;;;4.72;0.80;;;25.60;44.00;;;;;;10223118;28;20142;-45
2024/01/02 16:20:35;;;;;;;4.43;1.00;;;25.50;44.00;;;;;;10235331;28;20047;-50
2024/01/02 16:25:47;;;;;;;5.80;1.10;;;25.50;43.90;;;;;;10230569;28;20054;-45
2024/01/02 16:31:03;;;;;;;20.58;1.98;;;25.50;43.80;;;;;;10228350;28;20410;-46
2024/01/02 16:36:11;;;;;;;9.98;1.30;;;25.30;44.60;;;;;;10226032;28;20065;-48
2024/01/02 16:41:20;;;;;;;11.02;1.20;;;25.40;44.30;;;;;;10235028;28;20046;-46
2024/01/02 16:46:23;;;;;;;9.93;1.23;;;25.50;43.70;;;;;;10222977;28;20445;-48
2024/01/02 16:51:28;;;;;;;3.10;0.98;;;25.80;43.20;;;;;;10208173;28;20139;-46
2024/01/02 16:56:30;;;;;;;4.85;1.10;;;25.70;43.10;;;;;;10227699;28;20047;-50
2024/01/02 17:01:34;;;;;;;6.53;1.15;;;25.70;43.00;;;;;;10243443;28;20050;-47
2024/01/02 17:06:38;;;;;;;3.50;1.48;;;25.60;43.10;;;;;;10227002;28;20063;-45
2024/01/02 17:11:40;;;;;;;3.88;1.33;;;25.60;43.00;;;;;;10237154;28;20093;-48
2024/01/02 17:16:41;;;;;;;5.18;1.20;;;25.60;42.90;;;;;;10231943;28;20053;-46
2024/01/02 17:21:44;;;;;;;2.45;1.02;;;25.60;42.80;;;;;;10245740;28;20087;-45
2024/01/02 17:26:46;;;;;;;7.95;1.38;;;25.40;43.10;;;;;;10231556;28;20054;-45
2024/01/02 17:31:47;;;;;;;5.13;1.05;;;25.60;42.90;;;;;;10232511;28;20073;-45
2024/01/02 17:36:51;;;;;;;4.97;1.00;;;25.40;43.20;;;;;;10229151;28;20067;-49
2024/01/02 17:41:52;;;;;;;3.70;1.20;;;25.30;43.50;;;;;;10229058;28;20057;-46
2024/01/02 17:46:54;;;;;;;4.28;1.08;;;25.30;43.70;;;;;;10228868;28;20047;-45
2024/01/02 17:51:57;;;;;;;5.97;1.17;;;25.30;43.90;;;;;;10228218;28;20064;-46
2024/01/02 17:57:20;;;;;;;3.75;1.08;;;25.40;43.90;;;;;;10233532;28;20043;-45
2024/01/02 18:02:26;;;;;;;2.88;1.00;;;25.40;44.00;;;;;;10229051;28;20055;-46
2024/01/02 18:07:32;;;;;;;3.90;0.90;;;25.30;44.20;;;;;;10223951;29;20050;-45
2024/01/02 18:12:42;;;;;;;3.40;1.10;;;25.30;44.30;;;;;;10220652;29;20044;-45
2024/01/02 18:17:48;;;;;;;1.35;0.88;;;25.30;44.20;;;;;;10234220;28;20052;-46
2024/01/02 18:22:51;;;;;;;3.63;1.15;;;25.40;44.10;;;;;;10235756;28;20401;-46
2024/01/02 18:28:23;;;;;;;3.22;1.20;;;25.40;44.40;;;;;;10205023;28;20395;-47
2024/01/02 18:33:31;;;;;;;4.60;1.00;;;25.40;44.00;;;;;;10216789;28;20054;-46
2024/01/02 18:38:41;;;;;;;2.90;0.90;;;25.40;44.40;;;;;;10230352;28;20494;-45
2024/01/02 18:43:50;;;;;;;4.53;0.90;;;25.40;44.70;;;;;;10233400;28;20067;-47
2024/01/02 18:48:52;;;;;;;8.07;1.25;;;25.40;45.30;;;;;;10207969;28;20454;-45
2024/01/02 18:54:00;;;;;;;8.35;1.23;;;25.30;45.50;;;;;;10223878;28;20118;-45
2024/01/02 18:59:03;;;;;;;6.65;1.02;;;25.40;45.90;;;;;;10230623;28;20066;-45
2024/01/02 19:04:07;;;;;;;7.15;1.50;;;25.40;45.60;;;;;;10192187;28;20056;-53
2024/01/02 19:09:14;;;;;;;13.55;1.60;;;25.50;45.80;;;;;;10198562;28;20118;-45
2024/01/02 19:14:15;;;;;;;10.07;1.48;;;25.30;46.40;;;;;;10234217;28;20043;-45
2024/01/02 19:19:17;;;;;;;18.13;1.88;;;25.00;47.30;;;;;;10190269;28;20051;-46
2024/01/02 19:24:20;;;;;;;5.68;1.20;;;25.10;47.10;;;;;;10221968;28;20057;-49
2024/01/02 19:29:22;;;;;;;11.50;1.40;;;24.90;47.50;;;;;;10233315;28;20043;-47
2024/01/02 19:34:23;;;;;;;6.70;1.20;;;25.10;47.40;;;;;;10196646;28;20062;-45
2024/01/02 19:39:26;;;;;;;15.25;1.55;;;25.30;47.00;;;;;;10194711;29;20862;-47
2024/01/02 19:44:30;;;;;;;13.35;1.55;;;25.40;47.30;;;;;;10233243;28;20138;-45
2024/01/02 19:49:31;;;;;;;14.18;2.17;;;25.50;47.20;;;;;;10234476;28;20046;-48
2024/01/02 19:54:34;;;;;;;8.38;1.48;;;25.60;46.80;;;;;;10237505;28;20048;-47
2024/01/02 19:59:36;;;;;;;9.63;1.35;;;25.50;46.90;;;;;;10236006;28;20251;-46
2024/01/02 20:04:39;;;;;;;7.75;1.30;;;25.60;47.00;;;;;;10238597;28;20477;-47
2024/01/02 20:09:42;;;;;;;8.48;1.48;;;25.70;46.70;;;;;;10234703;28;20090;-45
2024/01/02 20:14:46;;;;;;;12.20;1.90;;;25.60;46.90;;;;;;10237948;28;20078;-47
2024/01/02 20:19:47;;;;;;;11.88;1.58;;;25.40;46.90;;;;;;10235548;28;20143;-46
2024/01/02 20:24:51;;;;;;;16.08;1.70;;;25.40;46.70;;;;;;10241090;28;20048;-45
2024/01/02 20:29:54;;;;;;;10.52;1.50;;;25.20;47.30;;;;;;10236632;28;20421;-47
2024/01/02 20:34:56;;;;;;;10.65;1.42;;;25.00;47.70;;;;;;10244870;28;20125;-54
2024/01/02 20:40:01;;;;;;;10.30;1.60;;;24.90;48.10;;;;;;10236145;28;20048;-45
2024/01/02 20:45:04;;;;;;;7.13;1.30;;;24.70;48.10;;;;;;10197231;28;20592;-50
2024/01/02 20:50:22;;;;;;;10.68;1.20;;;24.40;48.50;;;;;;10204131;28;20070;-46
2024/01/02 20:55:29;;;;;;;7.65;1.58;;;24.40;48.50;;;;;;10230243;28;20504;-49
2024/01/02 21:00:32;;;;;;;4.30;1.25;;;24.30;48.40;;;;;;10233545;28;20062;-45
2024/01/02 21:06:21;;;;;;;9.77;1.35;;;24.10;48.60;;;;;;10238975;28;20047;-48
2024/01/02 21:11:24;;;;;;;4.82;0.90;;;24.00;48.60;;;;;;10207520;28;20432;-45
2024/01/02 21:16:26;;;;;;;6.57;1.38;;;23.80;49.00;;;;;;10233401;28;20279;-45
2024/01/02 21:21:33;;;;;;;8.63;1.02;;;23.90;48.80;;;;;;10234536;28;20055;-44
2024/01/02 21:26:36;;;;;;;11.70;1.70;;;24.00;48.50;;;;;;10231884;28;20043;-45
2024/01/02 21:31:38;;;;;;;7.50;1.10;;;24.10;48.50;;;;;;10230661;28;20501;-45
2024/01/02 21:36:40;;;;;;;7.95;1.27;;;23.90;48.90;;;;;;10229325;28;20154;-47
2024/01/02 21:41:44;;;;;;;4.97;1.15;;;24.00;49.00;;;;;;10231587;28;20100;-48
2024/01/02 21:46:45;;;;;;;5.78;1.30;;;24.00;48.50;;;;;;10233771;28;20158;-51
2024/01/02 21:51:47;;;;;;;8.80;1.30;;;24.10;48.60;;;;;;10240298;28;20064;-45
2024/01/02 21:56:50;;;;;;;12.18;1.33;;;23.80;48.80;;;;;;10237896;28;20051;-45
2024/01/02 22:01:52;;;;;;;6.53;1.38;;;23.80;49.10;;;;;;10238907;28;20051;-46
2024/01/02 22:06:54;;;;;;;5.88;1.25;;;23.70;49.20;;;;;;10235660;28;20055;-49
2024/01/02 22:11:58;;;;;;;8.32;1.40;;;23.50;49.20;;;;;;10232655;28;20051;-45
2024/01/02 22:17:01;;;;;;;5.28;1.20;;;23.60;48.80;;;;;;10232838;28;20051;-45
2024/01/02 22:22:09;;;;;;;10.10;1.40;;;23.70;48.40;;;;;;10229756;28;20048;-45
2024/01/02 22:27:38;;;;;;;5.15;1.10;;;23.70;48.30;;;;;;10227920;28;20139;-47
2024/01/02 22:32:40;;;;;;;7.32;1.10;;;23.60;48.40;;;;;;10227248;28;20047;-45
2024/01/02 22:37:42;;;;;;;4.47;1.00;;;23.60;47.90;;;;;;10240248;28;20139;-49
2024/01/02 22:42:45;;;;;;;4.60;1.17;;;23.60;48.10;;;;;;10234095;28;20048;-46
2024/01/02 22:47:47;;;;;;;5.07;1.20;;;23.60;48.10;;;;;;10232663;28;20138;-45
2024/01/02 22:52:48;;;;;;;3.72;0.90;;;23.70;47.60;;;;;;10226274;28;20131;-50
2024/01/02 22:57:51;;;;;;;4.93;1.02;;;23.60;47.60;;;;;;10228765;28;20067;-45
2024/01/02 23:02:54;;;;;;;3.95;0.90;;;23.50;47.90;;;;;;10234669;28;20143;-49
2024/01/02 23:08:13;;;;;;;5.28;1.02;;;23.50;47.90;;;;;;10231162;28;20426;-45
2024/01/02 23:13:41;;;;;;;5.40;0.90;;;23.50;47.50;;;;;;10237226;28;20804;-47
2024/01/02 23:19:15;;;;;;;6.40;1.05;;;23.30;47.80;;;;;;10243265;28;20050;-46
2024/01/02 23:24:17;;;;;;;4.70;1.00;;;23.40;47.50;;;;;;10239730;28;20050;-45
2024/01/02 23:29:23;;;;;;;3.47;1.00;;;23.30;47.60;;;;;;10240686;28;20097;-45
2024/01/02 23:34:42;;;;;;;2.58;0.75;;;23.30;47.60;;;;;;10226594;28;20049;-49
2024/01/02 23:39:44;;;;;;;4.25;0.80;;;23.40;47.20;;;;;;10228084;28;20074;-46
2024/01/02 23:44:47;;;;;;;1.58;0.70;;;23.20;47.70;;;;;;10229069;28;20118;-49
2024/01/02 23:49:48;;;;;;;2.22;0.90;;;23.20;47.60;;;;;;10230348;28;20146;-46
2024/01/02 23:54:52;;;;;;;2.03;0.85;;;23.10;47.90;;;;;;10237247;28;20051;-46
2024/01/02 23:59:55;;;;;;;1.50;0.73;;;23.10;47.70;;;;;;10243644;28;20074;-45
